Fort de Russy, Louisiana
Current Conditions -  °F | °C
As of 3:53 AM on Monday 22 Dec 2014 (Local Time) from KESF Reporting Station
Overcast Overcast  
Wind Chill: 49°   Ceiling: 200
Heat Index: 49°   Visibility: 10mi
Dew Point: 49°   Wind: 3mph
Humidity: 100%   Direction: 150°SSE
Pressure: 29.84"   Gusts: NA
Location:  31.175°N, 91.9985°W
Report Text: KESF 220953Z AUTO 15003KT 10SM OVC002 09/09 A2984 RMK AO2 SLP105 T00940094
Loading
Personal Weather Stations






























Interactive Weather Map New forecast layout! Learn more

10-Day Weather Forecast

Advertisements
Track Severe Weather on mobile